KIOB

Mount Sterling-Montgomery County Airport

Mount Sterling, Kentucky, USA
METAR KIOB 151835Z AUTO 30010G17KT 10SM CLR 07/M02 A2988 RMK AO2
Observed Flight Rules
Feb-15 @ 18:35 UTC (35 minutes ago) Visual Flight Rules
Wind Visibility Clouds
300° at 10 knots
 Gusting to 17 knots
10 miles
  • Clear skies
Temperatures Readings
Current 7°C / 45°F
Dewpoint -2°C / 28°F
Humidity 53%
Altimeter 29.88" Hg
Pressure 1011.82 hPa
Elevation 311
METAR KIOB 151835Z AUTO 30010G17KT 10SM CLR 07/M02 A2988 RMK AO2
Observed Flight Rules
Feb-15 @ 18:35 UTC
(35 minutes ago)
VFR
Wind Visibility
300° at 10 knots
 Gusting to 17 knots
10 miles
Clouds
  • Clear skies
Temperature Dewpoint
7°C / 45°F -2°C / 28°F
Humidity Altimeter Pressure
53% 29.88" Hg 1011.82 hPa